createdAt,value
2018-04-15T00:02:02.985Z,9.30
2018-04-15T00:06:05.700Z,9.20
2018-04-15T00:10:08.321Z,9.10
2018-04-15T00:14:10.964Z,9.10
2018-04-15T00:18:13.620Z,9.00
2018-04-15T00:22:17.044Z,9.00
2018-04-15T00:26:19.653Z,8.90
2018-04-15T00:30:22.304Z,8.90
2018-04-15T00:34:25.719Z,8.90
2018-04-15T00:38:28.362Z,8.80
2018-04-15T00:42:31.010Z,8.90
2018-04-15T00:46:33.650Z,8.90
2018-04-15T00:50:36.368Z,8.90
2018-04-15T00:54:39.027Z,8.90
2018-04-15T00:58:41.674Z,8.90
2018-04-15T01:02:44.324Z,8.90
2018-04-15T01:06:47.699Z,8.90
2018-04-15T01:10:50.347Z,8.90
2018-04-15T01:14:52.989Z,9.00
2018-04-15T01:18:55.632Z,9.00
2018-04-15T01:22:59.014Z,9.00
2018-04-15T01:27:01.680Z,9.00
2018-04-15T01:31:05.152Z,9.10
2018-04-15T01:35:07.876Z,9.00
2018-04-15T01:39:11.281Z,9.10
2018-04-15T01:43:14.732Z,9.20
2018-04-15T01:47:17.388Z,9.10
2018-04-15T01:51:20.795Z,9.20
2018-04-15T01:55:24.269Z,9.30
2018-04-15T01:59:26.928Z,9.20
2018-04-15T02:03:29.547Z,9.30
2018-04-15T02:07:32.288Z,9.30
2018-04-15T02:11:34.953Z,9.40
2018-04-15T02:15:38.400Z,9.40
2018-04-15T02:19:41.076Z,9.40
2018-04-15T02:23:43.715Z,9.50
2018-04-15T02:27:46.360Z,9.50
2018-04-15T02:31:49.009Z,9.60
2018-04-15T02:35:52.419Z,9.60
2018-04-15T02:39:55.833Z,9.60
2018-04-15T02:43:59.207Z,9.70
2018-04-15T02:48:01.856Z,9.60
2018-04-15T02:52:04.496Z,9.70
2018-04-15T02:56:07.155Z,9.70
2018-04-15T03:00:09.820Z,9.70
2018-04-15T03:04:12.455Z,9.70
2018-04-15T03:08:15.111Z,9.70
2018-04-15T03:12:18.529Z,9.80
2018-04-15T03:16:21.218Z,9.70
2018-04-15T03:20:23.823Z,9.80
2018-04-15T03:24:26.476Z,9.80
2018-04-15T03:28:29.276Z,9.80
2018-04-15T03:32:31.920Z,9.80
2018-04-15T03:36:35.448Z,9.90
2018-04-15T03:40:38.055Z,9.80
2018-04-15T03:44:40.767Z,9.90
2018-04-15T03:48:43.425Z,9.90
2018-04-15T03:52:46.071Z,10.00
2018-04-15T03:56:49.560Z,10.00
2018-04-15T04:00:52.186Z,9.90
2018-04-15T04:04:54.839Z,10.00
2018-04-15T04:08:57.485Z,10.00
2018-04-15T04:13:00.175Z,10.00
2018-04-15T04:17:02.840Z,10.00
2018-04-15T04:21:17.171Z,10.00
2018-04-15T04:25:35.648Z,10.00
2018-04-15T04:29:39.164Z,10.00
2018-04-15T04:33:42.586Z,10.00
2018-04-15T04:37:45.200Z,10.00
2018-04-15T04:41:47.897Z,10.00
2018-04-15T04:45:50.539Z,10.10
2018-04-15T04:49:53.192Z,10.10
2018-04-15T04:53:55.861Z,10.10
2018-04-15T04:57:58.467Z,10.10
2018-04-15T05:02:01.125Z,10.10
2018-04-15T05:06:03.770Z,10.10
2018-04-15T05:10:07.185Z,10.10
2018-04-15T05:14:10.615Z,10.20
2018-04-15T05:18:13.235Z,10.10
2018-04-15T05:22:15.888Z,10.20
2018-04-15T05:26:18.538Z,10.20
2018-04-15T05:30:21.218Z,10.20
2018-04-15T05:34:23.843Z,10.20
2018-04-15T05:38:26.490Z,10.30
2018-04-15T05:42:29.143Z,10.30
2018-04-15T05:46:31.805Z,10.30
2018-04-15T05:50:34.461Z,10.30
2018-04-15T05:54:37.075Z,10.30
2018-04-15T05:58:39.871Z,10.30
2018-04-15T06:02:43.290Z,10.30
2018-04-15T06:06:45.941Z,10.30
2018-04-15T06:10:48.600Z,10.30
2018-04-15T06:14:51.229Z,10.30
2018-04-15T06:18:54.644Z,10.30
2018-04-15T06:22:57.284Z,10.30
2018-04-15T06:26:59.949Z,10.40
2018-04-15T06:31:02.613Z,10.40
2018-04-15T06:35:05.240Z,10.40
2018-04-15T06:39:08.803Z,10.40
2018-04-15T06:43:12.252Z,10.40
2018-04-15T06:47:14.922Z,10.40
2018-04-15T06:51:17.537Z,10.40
2018-04-15T06:55:20.189Z,10.40
2018-04-15T06:59:22.826Z,10.50
2018-04-15T07:03:25.472Z,10.50
2018-04-15T07:07:28.179Z,10.50
2018-04-15T07:11:30.790Z,10.50
2018-04-15T07:15:33.480Z,10.50
2018-04-15T07:19:36.131Z,10.50
2018-04-15T07:23:38.775Z,10.50
2018-04-15T07:27:41.424Z,10.50
2018-04-15T07:31:44.032Z,10.60
2018-04-15T07:35:46.690Z,10.60
2018-04-15T07:39:49.346Z,10.60
2018-04-15T07:43:52.766Z,10.60
2018-04-15T07:47:55.407Z,10.60
2018-04-15T07:51:58.825Z,10.70
2018-04-15T07:56:01.468Z,10.60
2018-04-15T08:00:04.115Z,10.80
2018-04-15T08:04:06.752Z,10.80
2018-04-15T08:08:09.364Z,10.80
2018-04-15T08:12:12.018Z,10.90
2018-04-15T08:16:14.660Z,11.00
2018-04-15T08:20:17.307Z,11.10
2018-04-15T08:24:19.968Z,11.10
2018-04-15T08:28:22.645Z,11.20
2018-04-15T08:32:26.066Z,11.30
2018-04-15T08:36:28.703Z,11.30
2018-04-15T08:40:31.349Z,11.40
2018-04-15T08:44:33.993Z,11.50
2018-04-15T08:48:36.611Z,11.60
2018-04-15T08:52:40.026Z,11.80
2018-04-15T08:56:42.672Z,11.80
2018-04-15T09:00:45.356Z,11.90
2018-04-15T09:04:48.095Z,12.00
2018-04-15T09:08:50.708Z,12.10
2018-04-15T09:12:53.353Z,12.20
2018-04-15T09:16:56.757Z,12.40
2018-04-15T09:21:00.224Z,12.40
2018-04-15T09:25:02.904Z,12.40
2018-04-15T09:29:05.600Z,12.50
2018-04-15T09:33:08.245Z,12.50
2018-04-15T09:37:10.888Z,12.60
2018-04-15T09:41:13.529Z,12.70
2018-04-15T09:45:16.149Z,12.80
2018-04-15T09:49:18.800Z,12.80
2018-04-15T09:53:21.436Z,12.90
2018-04-15T09:57:24.074Z,12.90
2018-04-15T10:01:26.714Z,12.90
2018-04-15T10:05:29.323Z,12.90
2018-04-15T10:09:32.777Z,12.90
2018-04-15T10:13:35.423Z,12.90
2018-04-15T10:17:38.827Z,12.90
2018-04-15T10:21:42.231Z,13.00
2018-04-15T10:25:45.656Z,13.00
2018-04-15T10:29:48.299Z,12.90
2018-04-15T10:33:50.946Z,13.00
2018-04-15T10:37:53.581Z,13.00
2018-04-15T10:41:56.231Z,13.00
2018-04-15T10:45:58.901Z,13.00
2018-04-15T10:50:01.551Z,13.00
2018-04-15T10:54:04.289Z,13.10
2018-04-15T10:58:06.956Z,13.20
2018-04-15T11:02:10.387Z,13.30
2018-04-15T11:06:13.045Z,13.20
2018-04-15T11:10:16.451Z,13.50
2018-04-15T11:14:19.853Z,13.50
2018-04-15T11:18:22.474Z,13.50
2018-04-15T11:22:25.120Z,13.60
2018-04-15T11:26:27.756Z,13.80
2018-04-15T11:30:30.387Z,13.90
2018-04-15T11:34:33.092Z,14.10
2018-04-15T11:38:35.709Z,14.30
2018-04-15T11:42:38.403Z,14.40
2018-04-15T11:46:41.046Z,14.50
2018-04-15T11:50:44.487Z,14.80
2018-04-15T11:54:47.890Z,14.90
2018-04-15T11:58:51.319Z,15.00
2018-04-15T12:02:53.960Z,15.00
2018-04-15T12:06:56.602Z,15.20
2018-04-15T12:10:59.249Z,15.30
2018-04-15T12:15:02.666Z,15.60
2018-04-15T12:19:06.041Z,15.70
2018-04-15T12:23:08.676Z,15.70
2018-04-15T12:27:11.312Z,15.80
2018-04-15T12:31:13.947Z,15.90
2018-04-15T12:35:16.551Z,16.10
2018-04-15T12:39:19.180Z,16.20
2018-04-15T12:43:21.828Z,16.20
2018-04-15T12:47:24.468Z,16.30
2018-04-15T12:51:27.276Z,16.20
2018-04-15T12:55:30.985Z,16.20
2018-04-15T12:59:33.882Z,16.20
2018-04-15T13:03:36.563Z,16.20
2018-04-15T13:07:39.201Z,16.30
2018-04-15T13:11:41.880Z,16.30
2018-04-15T13:15:44.484Z,16.40
2018-04-15T13:19:47.156Z,16.50
2018-04-15T13:23:49.787Z,16.70
2018-04-15T13:27:52.428Z,16.80
2018-04-15T13:31:55.085Z,17.00
2018-04-15T13:35:58.460Z,17.20
2018-04-15T13:40:01.091Z,17.10
2018-04-15T13:44:04.499Z,17.30
2018-04-15T13:48:07.904Z,17.40
2018-04-15T13:52:11.271Z,17.40
2018-04-15T13:56:13.933Z,17.30
2018-04-15T14:00:16.626Z,17.40
2018-04-15T14:04:19.279Z,17.40
2018-04-15T14:08:22.687Z,17.30
2018-04-15T14:12:25.345Z,17.30
2018-04-15T14:16:28.003Z,17.30
2018-04-15T14:20:30.660Z,17.30
2018-04-15T14:24:33.294Z,17.30
2018-04-15T14:28:36.003Z,17.30
2018-04-15T14:32:38.616Z,17.40
2018-04-15T14:36:41.277Z,17.50
2018-04-15T14:40:43.927Z,17.60
2018-04-15T14:44:46.582Z,17.70
2018-04-15T14:48:49.244Z,17.80
2018-04-15T14:52:51.858Z,17.90
2018-04-15T14:56:54.577Z,17.90
2018-04-15T15:00:57.225Z,18.00
2018-04-15T15:05:00.637Z,18.00
2018-04-15T15:09:04.007Z,18.10
2018-04-15T15:13:06.653Z,18.00
2018-04-15T15:17:09.313Z,18.10
2018-04-15T15:21:12.727Z,18.10
2018-04-15T15:25:16.144Z,18.10
2018-04-15T15:29:18.810Z,18.10
2018-04-15T15:33:22.212Z,18.20
2018-04-15T15:37:25.625Z,18.20
2018-04-15T15:41:29.036Z,18.20
2018-04-15T15:45:32.459Z,18.20
2018-04-15T15:49:35.069Z,18.20
2018-04-15T15:53:37.712Z,18.20
2018-04-15T15:57:41.116Z,18.30
2018-04-15T16:01:44.583Z,18.30
2018-04-15T16:05:47.238Z,18.30
2018-04-15T16:09:49.846Z,18.30
2018-04-15T16:13:52.548Z,18.30
2018-04-15T16:17:55.187Z,18.30
2018-04-15T16:21:58.595Z,18.10
2018-04-15T16:26:01.964Z,18.10
2018-04-15T16:30:04.605Z,18.10
2018-04-15T16:34:07.249Z,18.00
2018-04-15T16:38:09.989Z,18.00
2018-04-15T16:42:12.632Z,17.90
2018-04-15T16:46:15.300Z,17.80
2018-04-15T16:50:17.964Z,17.60
2018-04-15T16:54:20.632Z,17.50
2018-04-15T16:58:23.303Z,17.40
2018-04-15T17:02:26.707Z,17.20
2018-04-15T17:06:30.077Z,17.00
2018-04-15T17:10:32.775Z,17.00
2018-04-15T17:14:35.423Z,16.90
2018-04-15T17:18:38.067Z,16.90
2018-04-15T17:22:40.743Z,16.80
2018-04-15T17:26:43.381Z,16.70
2018-04-15T17:30:46.022Z,16.60
2018-04-15T17:34:48.656Z,16.60
2018-04-15T17:38:51.307Z,16.50
2018-04-15T17:42:53.930Z,16.40
2018-04-15T17:46:56.615Z,16.30
2018-04-15T17:50:59.259Z,16.20
2018-04-15T17:55:01.980Z,16.20
2018-04-15T17:59:04.714Z,16.10
2018-04-15T18:03:07.324Z,16.00
2018-04-15T18:07:10.024Z,15.90
2018-04-15T18:11:12.727Z,15.80
2018-04-15T18:15:16.131Z,15.70
2018-04-15T18:19:19.539Z,15.60
2018-04-15T18:23:22.912Z,15.60
2018-04-15T18:27:25.560Z,15.60
2018-04-15T18:31:28.203Z,15.50
2018-04-15T18:35:30.849Z,15.50
2018-04-15T18:39:33.502Z,15.40
2018-04-15T18:43:36.879Z,15.30
2018-04-15T18:47:39.571Z,15.30
2018-04-15T18:51:42.205Z,15.20
2018-04-15T18:55:44.842Z,15.10
2018-04-15T18:59:47.463Z,15.10
2018-04-15T19:03:50.259Z,15.00
2018-04-15T19:07:52.988Z,15.00
2018-04-15T19:11:57.179Z,14.90
2018-04-15T19:16:01.917Z,14.70
2018-04-15T19:20:04.564Z,14.70
2018-04-15T19:24:07.281Z,14.70
2018-04-15T19:28:10.732Z,14.50
2018-04-15T19:32:13.406Z,14.50
2018-04-15T19:36:16.073Z,14.40
2018-04-15T19:40:19.507Z,14.30
2018-04-15T19:44:22.182Z,14.20
2018-04-15T19:48:24.866Z,14.20
2018-04-15T19:52:27.560Z,14.10
2018-04-15T19:56:30.249Z,14.10
2018-04-15T20:00:32.946Z,14.00
2018-04-15T20:04:35.664Z,13.90
2018-04-15T20:08:38.872Z,13.80
2018-04-15T20:12:42.326Z,13.70
2018-04-15T20:16:45.776Z,13.60
2018-04-15T20:20:48.438Z,13.60
2018-04-15T20:24:51.149Z,13.60
2018-04-15T20:28:53.833Z,13.50
2018-04-15T20:32:56.641Z,13.40
2018-04-15T20:36:59.324Z,13.40
2018-04-15T20:41:01.986Z,13.30
2018-04-15T20:45:04.784Z,13.30
2018-04-15T20:49:07.462Z,13.20
2018-04-15T20:53:10.129Z,13.10
2018-04-15T20:57:13.537Z,13.00
2018-04-15T21:01:16.283Z,12.90
2018-04-15T21:05:18.939Z,12.90
2018-04-15T21:09:21.605Z,12.80
2018-04-15T21:13:25.070Z,12.70
2018-04-15T21:17:27.726Z,12.70
2018-04-15T21:21:30.408Z,12.60
2018-04-15T21:25:33.092Z,12.60
2018-04-15T21:29:35.761Z,12.50
2018-04-15T21:33:38.445Z,12.40
2018-04-15T21:37:41.112Z,12.40
2018-04-15T21:41:43.793Z,12.30
2018-04-15T21:45:46.461Z,12.20
2018-04-15T21:49:49.161Z,12.20
2018-04-15T21:53:51.845Z,12.10
2018-04-15T21:57:54.480Z,12.10
2018-04-15T22:01:57.150Z,12.10
2018-04-15T22:05:59.818Z,12.10
2018-04-15T22:10:02.494Z,12.10
2018-04-15T22:14:05.172Z,12.00
2018-04-15T22:18:07.889Z,12.00
2018-04-15T22:22:10.600Z,12.00
2018-04-15T22:26:13.329Z,12.00
2018-04-15T22:30:16.012Z,12.00
2018-04-15T22:34:19.448Z,12.00
2018-04-15T22:38:22.101Z,11.90
2018-04-15T22:42:25.561Z,11.90
2018-04-15T22:46:28.234Z,11.90
2018-04-15T22:50:36.423Z,11.90
2018-04-15T22:54:39.108Z,11.90
2018-04-15T22:58:47.464Z,11.90
2018-04-15T23:02:50.125Z,11.80
2018-04-15T23:06:52.793Z,11.90
2018-04-15T23:10:55.462Z,11.80
2018-04-15T23:14:58.126Z,11.80
2018-04-15T23:19:00.768Z,11.80
2018-04-15T23:23:03.457Z,11.70
2018-04-15T23:27:06.897Z,11.70
2018-04-15T23:31:09.561Z,11.60
2018-04-15T23:35:13.050Z,11.60
2018-04-15T23:39:15.711Z,11.60
2018-04-15T23:43:18.377Z,11.60
2018-04-15T23:47:21.104Z,11.60
2018-04-15T23:51:23.819Z,11.50
2018-04-15T23:55:27.310Z,11.50
2018-04-15T23:59:29.970Z,11.50
